sensor_id;sensor_type;location;lat;lon;timestamp;pressure;altitude;pressure_sealevel;temperature;humidity
37848;BME280;23688;33.130;-117.188;2023-04-24T00:00:31;98938.13;;;18.12;81.30
37848;BME280;23688;33.130;-117.188;2023-04-24T00:02:58;98943.34;;;17.95;82.61
37848;BME280;23688;33.130;-117.188;2023-04-24T00:05:25;98931.00;;;17.73;83.97
37848;BME280;23688;33.130;-117.188;2023-04-24T00:07:51;98921.47;;;18.09;84.59
37848;BME280;23688;33.130;-117.188;2023-04-24T00:10:21;98947.75;;;18.16;83.00
37848;BME280;23688;33.130;-117.188;2023-04-24T00:12:47;98942.53;;;18.55;80.77
37848;BME280;23688;33.130;-117.188;2023-04-24T00:15:14;98958.22;;;18.04;83.78
37848;BME280;23688;33.130;-117.188;2023-04-24T00:17:40;98950.25;;;17.73;83.10
37848;BME280;23688;33.130;-117.188;2023-04-24T00:20:07;98939.66;;;17.57;87.10
37848;BME280;23688;33.130;-117.188;2023-04-24T00:22:35;98946.66;;;17.58;85.38
37848;BME280;23688;33.130;-117.188;2023-04-24T00:25:02;98952.06;;;17.81;85.02
37848;BME280;23688;33.130;-117.188;2023-04-24T00:27:28;98951.16;;;17.82;85.52
37848;BME280;23688;33.130;-117.188;2023-04-24T00:29:57;98949.31;;;17.59;85.45
37848;BME280;23688;33.130;-117.188;2023-04-24T00:32:23;98944.06;;;17.65;84.66
37848;BME280;23688;33.130;-117.188;2023-04-24T00:34:50;98937.91;;;17.51;86.39
37848;BME280;23688;33.130;-117.188;2023-04-24T00:37:16;98935.38;;;17.75;84.04
37848;BME280;23688;33.130;-117.188;2023-04-24T00:39:42;98934.63;;;18.18;83.97
37848;BME280;23688;33.130;-117.188;2023-04-24T00:42:08;98938.16;;;18.29;82.78
37848;BME280;23688;33.130;-117.188;2023-04-24T00:44:35;98924.16;;;18.36;83.90
37848;BME280;23688;33.130;-117.188;2023-04-24T00:47:01;98931.13;;;18.17;81.99
37848;BME280;23688;33.130;-117.188;2023-04-24T00:49:28;98930.19;;;17.89;82.38
37848;BME280;23688;33.130;-117.188;2023-04-24T00:51:54;98909.84;;;17.39;85.25
37848;BME280;23688;33.130;-117.188;2023-04-24T00:54:20;98919.38;;;17.26;86.08
37848;BME280;23688;33.130;-117.188;2023-04-24T00:56:47;98921.03;;;17.06;88.45
37848;BME280;23688;33.130;-117.188;2023-04-24T00:59:16;98927.25;;;17.22;88.60
37848;BME280;23688;33.130;-117.188;2023-04-24T01:01:44;98916.72;;;17.19;88.55
37848;BME280;23688;33.130;-117.188;2023-04-24T01:04:12;98920.28;;;17.27;87.46
37848;BME280;23688;33.130;-117.188;2023-04-24T01:06:42;98922.78;;;17.04;89.16
37848;BME280;23688;33.130;-117.188;2023-04-24T01:09:09;98914.72;;;16.78;89.55
37848;BME280;23688;33.130;-117.188;2023-04-24T01:11:37;98928.81;;;16.87;90.69
37848;BME280;23688;33.130;-117.188;2023-04-24T01:14:04;98934.13;;;17.04;90.88
37848;BME280;23688;33.130;-117.188;2023-04-24T01:16:30;98933.09;;;16.82;89.88
37848;BME280;23688;33.130;-117.188;2023-04-24T01:18:57;98935.53;;;16.56;92.38
37848;BME280;23688;33.130;-117.188;2023-04-24T01:21:23;98933.56;;;16.34;93.35
37848;BME280;23688;33.130;-117.188;2023-04-24T01:23:53;98945.94;;;16.50;93.01
37848;BME280;23688;33.130;-117.188;2023-04-24T01:26:22;98942.53;;;16.60;93.39
37848;BME280;23688;33.130;-117.188;2023-04-24T01:28:49;98930.91;;;16.31;93.98
37848;BME280;23688;33.130;-117.188;2023-04-24T01:31:15;98915.50;;;16.67;92.59
37848;BME280;23688;33.130;-117.188;2023-04-24T01:33:42;98931.50;;;17.00;90.61
37848;BME280;23688;33.130;-117.188;2023-04-24T01:36:10;98931.44;;;16.92;90.26
37848;BME280;23688;33.130;-117.188;2023-04-24T01:38:40;98931.50;;;17.00;89.95
37848;BME280;23688;33.130;-117.188;2023-04-24T01:41:07;98934.94;;;16.94;88.91
37848;BME280;23688;33.130;-117.188;2023-04-24T01:43:33;98933.66;;;16.41;91.60
37848;BME280;23688;33.130;-117.188;2023-04-24T01:46:03;98943.97;;;16.24;92.66
37848;BME280;23688;33.130;-117.188;2023-04-24T01:48:32;98933.16;;;15.94;93.99
37848;BME280;23688;33.130;-117.188;2023-04-24T01:50:59;98932.16;;;15.81;95.11
37848;BME280;23688;33.130;-117.188;2023-04-24T01:53:26;98936.13;;;15.50;97.82
37848;BME280;23688;33.130;-117.188;2023-04-24T01:55:52;98935.31;;;15.55;97.78
37848;BME280;23688;33.130;-117.188;2023-04-24T01:58:18;98931.81;;;15.55;97.42
37848;BME280;23688;33.130;-117.188;2023-04-24T02:00:45;98935.94;;;15.34;98.89
37848;BME280;23688;33.130;-117.188;2023-04-24T02:03:11;98924.19;;;15.06;100.00
37848;BME280;23688;33.130;-117.188;2023-04-24T02:05:44;98937.28;;;15.05;100.00
37848;BME280;23688;33.130;-117.188;2023-04-24T02:08:11;98946.44;;;14.78;100.00
37848;BME280;23688;33.130;-117.188;2023-04-24T02:10:37;98940.44;;;14.84;100.00
37848;BME280;23688;33.130;-117.188;2023-04-24T02:13:03;98943.03;;;14.84;100.00
37848;BME280;23688;33.130;-117.188;2023-04-24T02:15:30;98945.00;;;14.98;100.00
37848;BME280;23688;33.130;-117.188;2023-04-24T02:17:56;98938.16;;;15.07;100.00
37848;BME280;23688;33.130;-117.188;2023-04-24T02:20:23;98924.72;;;14.82;100.00
37848;BME280;23688;33.130;-117.188;2023-04-24T02:22:49;98945.94;;;15.02;100.00
37848;BME280;23688;33.130;-117.188;2023-04-24T02:25:18;98926.81;;;15.06;100.00
37848;BME280;23688;33.130;-117.188;2023-04-24T02:27:44;98937.06;;;14.91;100.00
37848;BME280;23688;33.130;-117.188;2023-04-24T02:30:12;98948.34;;;14.90;100.00
37848;BME280;23688;33.130;-117.188;2023-04-24T02:32:39;98943.13;;;14.38;100.00
37848;BME280;23688;33.130;-117.188;2023-04-24T02:35:06;98948.22;;;14.81;100.00
37848;BME280;23688;33.130;-117.188;2023-04-24T02:37:32;98938.00;;;14.96;100.00
37848;BME280;23688;33.130;-117.188;2023-04-24T02:40:02;98947.75;;;15.09;100.00
37848;BME280;23688;33.130;-117.188;2023-04-24T02:42:29;98946.06;;;15.10;100.00
37848;BME280;23688;33.130;-117.188;2023-04-24T02:44:58;98945.56;;;14.77;100.00
37848;BME280;23688;33.130;-117.188;2023-04-24T02:47:25;98948.72;;;14.57;100.00
37848;BME280;23688;33.130;-117.188;2023-04-24T02:49:54;98958.34;;;14.59;100.00
37848;BME280;23688;33.130;-117.188;2023-04-24T02:52:21;98965.41;;;14.66;100.00
37848;BME280;23688;33.130;-117.188;2023-04-24T02:54:47;98971.44;;;14.61;100.00
37848;BME280;23688;33.130;-117.188;2023-04-24T02:57:14;98978.13;;;14.46;100.00
37848;BME280;23688;33.130;-117.188;2023-04-24T02:59:42;98965.81;;;14.39;100.00
37848;BME280;23688;33.130;-117.188;2023-04-24T03:02:08;98965.34;;;14.62;100.00
37848;BME280;23688;33.130;-117.188;2023-04-24T03:04:34;98977.53;;;14.63;100.00
37848;BME280;23688;33.130;-117.188;2023-04-24T03:07:01;98989.94;;;14.73;100.00
37848;BME280;23688;33.130;-117.188;2023-04-24T03:09:27;98997.81;;;14.76;100.00
37848;BME280;23688;33.130;-117.188;2023-04-24T03:11:53;99004.81;;;14.79;100.00
37848;BME280;23688;33.130;-117.188;2023-04-24T03:14:22;99009.09;;;14.75;100.00
37848;BME280;23688;33.130;-117.188;2023-04-24T03:16:48;99008.22;;;14.73;100.00
37848;BME280;23688;33.130;-117.188;2023-04-24T03:19:16;99016.16;;;14.79;100.00
37848;BME280;23688;33.130;-117.188;2023-04-24T03:21:42;99006.56;;;14.78;100.00
37848;BME280;23688;33.130;-117.188;2023-04-24T03:24:08;99008.31;;;14.79;100.00
37848;BME280;23688;33.130;-117.188;2023-04-24T03:26:37;99008.31;;;14.79;100.00
37848;BME280;23688;33.130;-117.188;2023-04-24T03:29:04;99022.25;;;14.78;100.00
37848;BME280;23688;33.130;-117.188;2023-04-24T03:31:30;99026.31;;;14.62;100.00
37848;BME280;23688;33.130;-117.188;2023-04-24T03:34:01;99039.97;;;14.49;100.00
37848;BME280;23688;33.130;-117.188;2023-04-24T03:36:29;99039.28;;;14.56;100.00
37848;BME280;23688;33.130;-117.188;2023-04-24T03:38:57;99042.03;;;14.64;100.00
37848;BME280;23688;33.130;-117.188;2023-04-24T03:41:24;99041.16;;;14.65;100.00
37848;BME280;23688;33.130;-117.188;2023-04-24T03:43:50;99054.75;;;14.48;100.00
37848;BME280;23688;33.130;-117.188;2023-04-24T03:46:16;99053.97;;;14.52;100.00
37848;BME280;23688;33.130;-117.188;2023-04-24T03:48:43;99050.28;;;14.41;100.00
37848;BME280;23688;33.130;-117.188;2023-04-24T03:51:12;99041.59;;;14.42;100.00
37848;BME280;23688;33.130;-117.188;2023-04-24T03:53:39;99062.56;;;14.47;100.00
37848;BME280;23688;33.130;-117.188;2023-04-24T03:56:05;99054.81;;;14.51;100.00
37848;BME280;23688;33.130;-117.188;2023-04-24T03:58:32;99072.41;;;14.60;100.00
37848;BME280;23688;33.130;-117.188;2023-04-24T04:00:59;99064.66;;;14.63;100.00
37848;BME280;23688;33.130;-117.188;2023-04-24T04:03:25;99068.84;;;14.53;100.00
37848;BME280;23688;33.130;-117.188;2023-04-24T04:05:52;99062.53;;;14.44;100.00
37848;BME280;23688;33.130;-117.188;2023-04-24T04:08:18;99059.09;;;14.48;100.00
37848;BME280;23688;33.130;-117.188;2023-04-24T04:10:45;99068.00;;;14.56;100.00
37848;BME280;23688;33.130;-117.188;2023-04-24T04:13:11;99074.16;;;14.60;100.00
37848;BME280;23688;33.130;-117.188;2023-04-24T04:15:37;99074.06;;;14.55;100.00
37848;BME280;23688;33.130;-117.188;2023-04-24T04:18:04;99087.19;;;14.58;100.00
37848;BME280;23688;33.130;-117.188;2023-04-24T04:20:31;99089.00;;;14.62;100.00
37848;BME280;23688;33.130;-117.188;2023-04-24T04:22:57;99082.50;;;14.43;100.00
37848;BME280;23688;33.130;-117.188;2023-04-24T04:25:23;99083.25;;;14.34;100.00
37848;BME280;23688;33.130;-117.188;2023-04-24T04:27:50;99084.41;;;14.50;100.00
37848;BME280;23688;33.130;-117.188;2023-04-24T04:30:16;99047.50;;;14.32;100.00
37848;BME280;23688;33.130;-117.188;2023-04-24T04:32:46;99079.34;;;14.57;100.00
37848;BME280;23688;33.130;-117.188;2023-04-24T04:35:13;99080.16;;;14.55;100.00
37848;BME280;23688;33.130;-117.188;2023-04-24T04:37:39;99089.09;;;14.67;100.00
37848;BME280;23688;33.130;-117.188;2023-04-24T04:40:08;99081.94;;;14.57;100.00
37848;BME280;23688;33.130;-117.188;2023-04-24T04:42:37;99095.84;;;14.55;100.00
37848;BME280;23688;33.130;-117.188;2023-04-24T04:45:07;99100.34;;;14.63;100.00
37848;BME280;23688;33.130;-117.188;2023-04-24T04:47:37;99081.63;;;14.43;100.00
37848;BME280;23688;33.130;-117.188;2023-04-24T04:50:05;99101.16;;;14.59;100.00
37848;BME280;23688;33.130;-117.188;2023-04-24T04:52:32;99094.13;;;14.58;100.00
37848;BME280;23688;33.130;-117.188;2023-04-24T04:54:58;99095.06;;;14.60;100.00
37848;BME280;23688;33.130;-117.188;2023-04-24T04:57:25;99092.56;;;14.66;100.00
37848;BME280;23688;33.130;-117.188;2023-04-24T04:59:52;99096.06;;;14.68;100.00
37848;BME280;23688;33.130;-117.188;2023-04-24T05:02:18;99098.75;;;14.71;100.00
37848;BME280;23688;33.130;-117.188;2023-04-24T05:04:44;99104.22;;;14.83;100.00
37848;BME280;23688;33.130;-117.188;2023-04-24T05:07:11;99103.38;;;14.86;100.00
37848;BME280;23688;33.130;-117.188;2023-04-24T05:09:37;99089.44;;;14.87;100.00
37848;BME280;23688;33.130;-117.188;2023-04-24T05:12:04;99100.16;;;15.01;100.00
37848;BME280;23688;33.130;-117.188;2023-04-24T05:14:30;99103.75;;;15.07;100.00
37848;BME280;23688;33.130;-117.188;2023-04-24T05:16:56;99101.97;;;15.05;100.00
37848;BME280;23688;33.130;-117.188;2023-04-24T05:19:23;99102.59;;;14.91;100.00
37848;BME280;23688;33.130;-117.188;2023-04-24T05:21:49;99110.88;;;14.66;100.00
37848;BME280;23688;33.130;-117.188;2023-04-24T05:24:15;99087.69;;;14.40;100.00
37848;BME280;23688;33.130;-117.188;2023-04-24T05:26:41;99110.19;;;14.33;100.00
37848;BME280;23688;33.130;-117.188;2023-04-24T05:29:08;99102.78;;;14.11;100.00
37848;BME280;23688;33.130;-117.188;2023-04-24T05:31:34;99107.88;;;14.06;100.00
37848;BME280;23688;33.130;-117.188;2023-04-24T05:34:00;99101.16;;;14.18;100.00
37848;BME280;23688;33.130;-117.188;2023-04-24T05:36:32;99103.94;;;14.25;100.00
37848;BME280;23688;33.130;-117.188;2023-04-24T05:38:58;99090.06;;;14.28;100.00
37848;BME280;23688;33.130;-117.188;2023-04-24T05:41:24;99095.53;;;14.40;100.00
37848;BME280;23688;33.130;-117.188;2023-04-24T05:43:50;99090.41;;;14.45;100.00
37848;BME280;23688;33.130;-117.188;2023-04-24T05:46:17;99093.00;;;14.45;100.00
37848;BME280;23688;33.130;-117.188;2023-04-24T05:48:43;99090.00;;;14.25;100.00
37848;BME280;23688;33.130;-117.188;2023-04-24T05:51:10;99084.97;;;14.35;100.00
37848;BME280;23688;33.130;-117.188;2023-04-24T05:53:36;99092.84;;;14.37;100.00
37848;BME280;23688;33.130;-117.188;2023-04-24T05:56:03;99087.44;;;14.28;100.00
37848;BME280;23688;33.130;-117.188;2023-04-24T05:58:29;99066.41;;;14.20;100.00
37848;BME280;23688;33.130;-117.188;2023-04-24T06:00:55;99079.94;;;14.45;100.00
37848;BME280;23688;33.130;-117.188;2023-04-24T06:03:24;99088.28;;;14.69;100.00
37848;BME280;23688;33.130;-117.188;2023-04-24T06:05:51;99078.06;;;14.83;100.00
37848;BME280;23688;33.130;-117.188;2023-04-24T06:08:19;99073.81;;;14.90;100.00
37848;BME280;23688;33.130;-117.188;2023-04-24T06:10:45;99069.53;;;14.93;100.00
37848;BME280;23688;33.130;-117.188;2023-04-24T06:13:11;99067.69;;;14.88;100.00
37848;BME280;23688;33.130;-117.188;2023-04-24T06:15:38;99075.59;;;14.91;100.00
37848;BME280;23688;33.130;-117.188;2023-04-24T06:18:04;99077.41;;;14.95;100.00
37848;BME280;23688;33.130;-117.188;2023-04-24T06:20:30;99068.66;;;14.93;100.00
37848;BME280;23688;33.130;-117.188;2023-04-24T06:22:57;99067.78;;;14.92;100.00
37848;BME280;23688;33.130;-117.188;2023-04-24T06:25:25;99073.84;;;14.91;100.00
37848;BME280;23688;33.130;-117.188;2023-04-24T06:27:52;99072.63;;;14.72;100.00
37848;BME280;23688;33.130;-117.188;2023-04-24T06:30:19;99076.84;;;14.64;100.00
37848;BME280;23688;33.130;-117.188;2023-04-24T06:32:45;99081.16;;;14.62;100.00
37848;BME280;23688;33.130;-117.188;2023-04-24T06:35:11;99078.28;;;14.50;100.00
37848;BME280;23688;33.130;-117.188;2023-04-24T06:37:42;99083.47;;;14.48;100.00
37848;BME280;23688;33.130;-117.188;2023-04-24T06:40:09;99072.88;;;14.41;100.00
37848;BME280;23688;33.130;-117.188;2023-04-24T06:42:36;99082.66;;;14.49;100.00
37848;BME280;23688;33.130;-117.188;2023-04-24T06:45:02;99086.00;;;14.42;100.00
37848;BME280;23688;33.130;-117.188;2023-04-24T06:47:29;99072.00;;;14.40;100.00
37848;BME280;23688;33.130;-117.188;2023-04-24T06:49:57;99078.13;;;14.41;100.00
37848;BME280;23688;33.130;-117.188;2023-04-24T06:52:24;99073.63;;;14.32;100.00
37848;BME280;23688;33.130;-117.188;2023-04-24T06:54:50;99091.22;;;14.42;100.00
37848;BME280;23688;33.130;-117.188;2023-04-24T06:57:17;99097.31;;;14.43;100.00
37848;BME280;23688;33.130;-117.188;2023-04-24T06:59:44;99086.75;;;14.37;100.00
37848;BME280;23688;33.130;-117.188;2023-04-24T07:02:10;99079.72;;;14.32;100.00
37848;BME280;23688;33.130;-117.188;2023-04-24T07:04:36;99077.03;;;14.29;100.00
37848;BME280;23688;33.130;-117.188;2023-04-24T07:07:03;99092.03;;;14.40;100.00
37848;BME280;23688;33.130;-117.188;2023-04-24T07:09:31;99096.34;;;14.38;100.00
37848;BME280;23688;33.130;-117.188;2023-04-24T07:11:57;99084.09;;;14.35;100.00
37848;BME280;23688;33.130;-117.188;2023-04-24T07:14:24;99088.41;;;14.31;100.00
37848;BME280;23688;33.130;-117.188;2023-04-24T07:16:50;99080.38;;;14.22;100.00
37848;BME280;23688;33.130;-117.188;2023-04-24T07:19:16;99094.34;;;14.24;100.00
37848;BME280;23688;33.130;-117.188;2023-04-24T07:21:43;99098.66;;;14.22;100.00
37848;BME280;23688;33.130;-117.188;2023-04-24T07:24:09;99096.94;;;14.23;100.00
37848;BME280;23688;33.130;-117.188;2023-04-24T07:26:37;99089.91;;;14.20;100.00
37848;BME280;23688;33.130;-117.188;2023-04-24T07:29:04;99105.56;;;14.20;100.00
37848;BME280;23688;33.130;-117.188;2023-04-24T07:31:31;99094.94;;;14.09;100.00
37848;BME280;23688;33.130;-117.188;2023-04-24T07:33:57;99094.94;;;14.11;100.00
37848;BME280;23688;33.130;-117.188;2023-04-24T07:36:24;99092.31;;;14.09;100.00
37848;BME280;23688;33.130;-117.188;2023-04-24T07:38:51;99097.66;;;14.16;100.00
37848;BME280;23688;33.130;-117.188;2023-04-24T07:41:18;99093.19;;;14.11;100.00
37848;BME280;23688;33.130;-117.188;2023-04-24T07:43:44;99106.34;;;14.15;100.00
37848;BME280;23688;33.130;-117.188;2023-04-24T07:46:11;99097.59;;;14.12;100.00
37848;BME280;23688;33.130;-117.188;2023-04-24T07:48:37;99094.13;;;14.13;100.00
37848;BME280;23688;33.130;-117.188;2023-04-24T07:51:04;99098.75;;;14.28;100.00
37848;BME280;23688;33.130;-117.188;2023-04-24T07:53:30;99093.50;;;14.25;100.00
37848;BME280;23688;33.130;-117.188;2023-04-24T07:55:57;99091.66;;;14.20;100.00
37848;BME280;23688;33.130;-117.188;2023-04-24T07:58:23;99091.50;;;14.12;100.00
37848;BME280;23688;33.130;-117.188;2023-04-24T08:00:49;99093.09;;;14.05;100.00
37848;BME280;23688;33.130;-117.188;2023-04-24T08:03:16;99101.06;;;14.13;100.00
37848;BME280;23688;33.130;-117.188;2023-04-24T08:05:45;99106.41;;;14.18;100.00
37848;BME280;23688;33.130;-117.188;2023-04-24T08:08:13;99099.38;;;14.15;100.00
37848;BME280;23688;33.130;-117.188;2023-04-24T08:10:40;99096.81;;;14.18;100.00
37848;BME280;23688;33.130;-117.188;2023-04-24T08:13:06;99101.28;;;14.24;100.00
37848;BME280;23688;33.130;-117.188;2023-04-24T08:15:33;99098.50;;;14.15;100.00
37848;BME280;23688;33.130;-117.188;2023-04-24T08:17:59;99090.84;;;14.24;100.00
37848;BME280;23688;33.130;-117.188;2023-04-24T08:20:26;99069.94;;;14.24;100.00
37848;BME280;23688;33.130;-117.188;2023-04-24T08:22:52;99079.81;;;14.39;100.00
37848;BME280;23688;33.130;-117.188;2023-04-24T08:25:20;99069.16;;;14.28;100.00
37848;BME280;23688;33.130;-117.188;2023-04-24T08:27:48;99080.50;;;14.28;100.00
37848;BME280;23688;33.130;-117.188;2023-04-24T08:30:15;99061.22;;;14.22;100.00
37848;BME280;23688;33.130;-117.188;2023-04-24T08:32:41;99074.19;;;14.19;100.00
37848;BME280;23688;33.130;-117.188;2023-04-24T08:35:07;99084.97;;;14.34;100.00
37848;BME280;23688;33.130;-117.188;2023-04-24T08:37:35;99066.78;;;14.40;100.00
37848;BME280;23688;33.130;-117.188;2023-04-24T08:40:06;99077.56;;;14.55;100.00
37848;BME280;23688;33.130;-117.188;2023-04-24T08:42:37;99093.31;;;14.59;100.00
37848;BME280;23688;33.130;-117.188;2023-04-24T08:45:03;99082.88;;;14.59;100.00
37848;BME280;23688;33.130;-117.188;2023-04-24T08:47:31;99074.94;;;14.55;100.00
37848;BME280;23688;33.130;-117.188;2023-04-24T08:49:59;99081.91;;;14.55;100.00
37848;BME280;23688;33.130;-117.188;2023-04-24T08:52:30;99074.63;;;14.40;100.00
37848;BME280;23688;33.130;-117.188;2023-04-24T08:54:59;99075.41;;;14.34;100.00
37848;BME280;23688;33.130;-117.188;2023-04-24T08:57:27;99085.81;;;14.33;100.00
37848;BME280;23688;33.130;-117.188;2023-04-24T08:59:53;99067.28;;;14.19;100.00
37848;BME280;23688;33.130;-117.188;2023-04-24T09:02:21;99085.66;;;14.25;100.00
37848;BME280;23688;33.130;-117.188;2023-04-24T09:04:49;99083.25;;;14.34;100.00
37848;BME280;23688;33.130;-117.188;2023-04-24T09:07:16;99088.50;;;14.38;100.00
37848;BME280;23688;33.130;-117.188;2023-04-24T09:09:44;99077.09;;;14.32;100.00
37848;BME280;23688;33.130;-117.188;2023-04-24T09:12:11;99067.56;;;14.34;100.00
37848;BME280;23688;33.130;-117.188;2023-04-24T09:14:38;99084.09;;;14.35;100.00
37848;BME280;23688;33.130;-117.188;2023-04-24T09:17:08;99073.47;;;14.26;100.00
37848;BME280;23688;33.130;-117.188;2023-04-24T09:19:35;99079.50;;;14.22;100.00
37848;BME280;23688;33.130;-117.188;2023-04-24T09:22:05;99075.25;;;14.28;100.00
37848;BME280;23688;33.130;-117.188;2023-04-24T09:24:35;99071.72;;;14.25;100.00
37848;BME280;23688;33.130;-117.188;2023-04-24T09:27:01;99069.06;;;14.22;100.00
37848;BME280;23688;33.130;-117.188;2023-04-24T09:29:28;99069.13;;;14.26;100.00
37848;BME280;23688;33.130;-117.188;2023-04-24T09:31:55;99084.16;;;14.37;100.00
37848;BME280;23688;33.130;-117.188;2023-04-24T09:34:27;99078.78;;;14.29;100.00
37848;BME280;23688;33.130;-117.188;2023-04-24T09:36:54;99076.31;;;13.94;100.00
37848;BME280;23688;33.130;-117.188;2023-04-24T09:39:21;99088.66;;;13.62;100.00
37848;BME280;23688;33.130;-117.188;2023-04-24T09:41:57;99081.22;;;13.79;100.00
37848;BME280;23688;33.130;-117.188;2023-04-24T09:44:26;99085.69;;;13.84;100.00
37848;BME280;23688;33.130;-117.188;2023-04-24T09:46:57;99077.88;;;13.86;100.00
37848;BME280;23688;33.130;-117.188;2023-04-24T09:51:50;99072.06;;;13.98;100.00
37848;BME280;23688;33.130;-117.188;2023-04-24T09:54:20;99074.09;;;14.12;100.00
37848;BME280;23688;33.130;-117.188;2023-04-24T09:56:50;99076.00;;;14.21;100.00
37848;BME280;23688;33.130;-117.188;2023-04-24T09:59:19;99076.13;;;14.27;100.00
37848;BME280;23688;33.130;-117.188;2023-04-24T10:01:46;99078.66;;;14.23;100.00
37848;BME280;23688;33.130;-117.188;2023-04-24T10:04:19;99085.50;;;14.18;100.00
37848;BME280;23688;33.130;-117.188;2023-04-24T10:06:47;99084.00;;;14.29;100.00
37848;BME280;23688;33.130;-117.188;2023-04-24T10:09:19;99093.69;;;14.34;100.00
37848;BME280;23688;33.130;-117.188;2023-04-24T10:11:58;99088.41;;;14.31;100.00
37848;BME280;23688;33.130;-117.188;2023-04-24T10:14:25;99070.94;;;14.29;100.00
37848;BME280;23688;33.130;-117.188;2023-04-24T10:16:55;99083.16;;;14.30;100.00
37848;BME280;23688;33.130;-117.188;2023-04-24T10:19:27;99091.06;;;14.34;100.00
37848;BME280;23688;33.130;-117.188;2023-04-24T10:21:56;99089.38;;;14.38;100.00
37848;BME280;23688;33.130;-117.188;2023-04-24T10:24:23;99084.25;;;14.43;100.00
37848;BME280;23688;33.130;-117.188;2023-04-24T10:26:49;99096.53;;;14.48;100.00
37848;BME280;23688;33.130;-117.188;2023-04-24T10:29:35;99093.03;;;14.46;100.00
37848;BME280;23688;33.130;-117.188;2023-04-24T10:32:07;99088.69;;;14.47;100.00
37848;BME280;23688;33.130;-117.188;2023-04-24T10:34:36;99092.19;;;14.47;100.00
37848;BME280;23688;33.130;-117.188;2023-04-24T10:37:03;99103.41;;;14.42;100.00
37848;BME280;23688;33.130;-117.188;2023-04-24T10:39:29;99093.59;;;14.30;100.00
37848;BME280;23688;33.130;-117.188;2023-04-24T10:41:59;99075.88;;;14.15;100.00
37848;BME280;23688;33.130;-117.188;2023-04-24T10:44:25;99099.34;;;14.12;100.00
37848;BME280;23688;33.130;-117.188;2023-04-24T10:47:01;99111.66;;;14.19;100.00
37848;BME280;23688;33.130;-117.188;2023-04-24T10:49:29;99103.66;;;14.11;100.00
37848;BME280;23688;33.130;-117.188;2023-04-24T10:52:01;99112.34;;;14.10;100.00
37848;BME280;23688;33.130;-117.188;2023-04-24T10:54:45;99125.50;;;14.15;100.00
37848;BME280;23688;33.130;-117.188;2023-04-24T11:00:19;99123.84;;;14.20;100.00
37848;BME280;23688;33.130;-117.188;2023-04-24T11:02:47;99109.84;;;14.17;100.00
37848;BME280;23688;33.130;-117.188;2023-04-24T11:05:16;99105.66;;;14.25;100.00
37848;BME280;23688;33.130;-117.188;2023-04-24T11:10:56;99113.25;;;14.12;100.00
37848;BME280;23688;33.130;-117.188;2023-04-24T11:13:25;99110.50;;;14.06;100.00
37848;BME280;23688;33.130;-117.188;2023-04-24T11:16:14;99107.84;;;14.03;100.00
37848;BME280;23688;33.130;-117.188;2023-04-24T11:18:44;99094.56;;;13.93;100.00
37848;BME280;23688;33.130;-117.188;2023-04-24T11:21:20;99105.06;;;13.97;100.00
37848;BME280;23688;33.130;-117.188;2023-04-24T11:23:46;99107.78;;;14.02;100.00
37848;BME280;23688;33.130;-117.188;2023-04-24T11:26:18;99110.28;;;13.97;100.00
37848;BME280;23688;33.130;-117.188;2023-04-24T11:28:49;99120.81;;;14.00;100.00
37848;BME280;23688;33.130;-117.188;2023-04-24T11:31:39;99114.75;;;14.01;100.00
37848;BME280;23688;33.130;-117.188;2023-04-24T11:34:10;99113.00;;;14.00;100.00
37848;BME280;23688;33.130;-117.188;2023-04-24T11:36:38;99100.66;;;13.93;100.00
37848;BME280;23688;33.130;-117.188;2023-04-24T11:39:05;99126.06;;;14.02;100.00
37848;BME280;23688;33.130;-117.188;2023-04-24T11:41:33;99122.56;;;14.00;100.00
37848;BME280;23688;33.130;-117.188;2023-04-24T11:44:00;99139.41;;;14.16;100.00
37848;BME280;23688;33.130;-117.188;2023-04-24T11:46:28;99143.06;;;14.22;100.00
37848;BME280;23688;33.130;-117.188;2023-04-24T11:48:56;99151.75;;;14.23;100.00
37848;BME280;23688;33.130;-117.188;2023-04-24T11:51:23;99154.41;;;14.26;100.00
37848;BME280;23688;33.130;-117.188;2023-04-24T11:53:51;99150.94;;;14.25;100.00
37848;BME280;23688;33.130;-117.188;2023-04-24T11:56:24;99150.16;;;14.31;100.00
37848;BME280;23688;33.130;-117.188;2023-04-24T11:58:54;99139.72;;;14.31;100.00
37848;BME280;23688;33.130;-117.188;2023-04-24T12:01:20;99141.53;;;14.33;100.00
37848;BME280;23688;33.130;-117.188;2023-04-24T12:03:50;99153.84;;;14.41;100.00
37848;BME280;23688;33.130;-117.188;2023-04-24T12:06:20;99148.63;;;14.41;100.00
37848;BME280;23688;33.130;-117.188;2023-04-24T12:08:47;99144.06;;;14.29;100.00
37848;BME280;23688;33.130;-117.188;2023-04-24T12:11:16;99158.09;;;14.34;100.00
37848;BME280;23688;33.130;-117.188;2023-04-24T12:13:43;99147.56;;;14.31;100.00
37848;BME280;23688;33.130;-117.188;2023-04-24T12:16:10;99157.91;;;14.26;100.00
37848;BME280;23688;33.130;-117.188;2023-04-24T12:18:42;99150.94;;;14.25;100.00
37848;BME280;23688;33.130;-117.188;2023-04-24T12:21:22;99160.66;;;14.32;100.00
37848;BME280;23688;33.130;-117.188;2023-04-24T12:23:54;99166.69;;;14.30;100.00
37848;BME280;23688;33.130;-117.188;2023-04-24T12:26:21;99159.81;;;14.33;100.00
37848;BME280;23688;33.130;-117.188;2023-04-24T12:28:49;99154.31;;;14.21;100.00
37848;BME280;23688;33.130;-117.188;2023-04-24T12:31:16;99168.28;;;14.23;100.00
37848;BME280;23688;33.130;-117.188;2023-04-24T12:33:43;99170.03;;;14.23;100.00